M I D A S
Marine Information and Data Acquisition System
Tripno 1957 of the Zeeleeuw from 2010-09-15 06:25:38 to 2010-09-15 10:44:20
Back to CruiseResearch ActivitiesStationsMapUnderway DataData graphs

EquipmentUnitsComment
TimeDGPSUTC
LatitudeDGPSDM.mWGS84
LongitudeDGPSDM.mWGS84
HeadingGyrodeg 
SOGDGPSknotsSpeed over ground
COGDGPSdegCourse over ground
DepthEcho soundermeters200 kHz
Missing or incorrect values are displayed as -999
Navigation data collected by the RV Zeeleeuw from 2010-09-15 06:11:35 to 2010-09-15 10:53:31
                                                                                    Next 1000 lines
Time Latitude Longitude Heading SOG COG Depth
2010-09-15 06:11:46 51°13.665 2°55.96 126.5 0.4 285 8.3
2010-09-15 06:11:51 51°13.665 2°55.961 126.4 0.4 284 8.3
2010-09-15 06:11:55 51°13.664 2°55.961 126.4 0.2 295 8.2
2010-09-15 06:12:00 51°13.664 2°55.961 126.4 -999 328 8.2
2010-09-15 06:12:05 51°13.664 2°55.961 126.5 0.1 264 8.3
2010-09-15 06:12:10 51°13.664 2°55.96 126.5 0.1 296 8.3
2010-09-15 06:12:15 51°13.664 2°55.961 126.5 -999 77 8.3
2010-09-15 06:12:19 51°13.664 2°55.96 126.5 0.1 86 8.2
2010-09-15 06:12:24 51°13.664 2°55.96 126.4 0.1 303 8.2
2010-09-15 06:12:29 51°13.665 2°55.96 126.3 0.1 316 8.3
2010-09-15 06:12:34 51°13.665 2°55.959 126.3 0.2 299 8.2
2010-09-15 06:12:39 51°13.665 2°55.959 126.3 0.1 305 8.3
2010-09-15 06:12:43 51°13.664 2°55.959 126.3 0.1 101 8.3
2010-09-15 06:12:48 51°13.664 2°55.959 126.3 0.1 119 8.2
2010-09-15 06:12:53 51°13.664 2°55.959 126.3 0.1 106 8.3
2010-09-15 06:12:58 51°13.664 2°55.959 126.4 -999 263 8.2
2010-09-15 06:13:03 51°13.664 2°55.959 126.3 0.1 310 8.2
2010-09-15 06:13:08 51°13.664 2°55.959 126.2 0.1 323 8.3
2010-09-15 06:13:13 51°13.664 2°55.959 126.2 0.1 72 8.3
2010-09-15 06:13:17 51°13.664 2°55.959 126.2 -999 70 8.3
2010-09-15 06:13:23 51°13.664 2°55.959 126.2 -999 204 8.4
2010-09-15 06:13:27 51°13.664 2°55.96 126.3 -999 88 8.3
2010-09-15 06:13:32 51°13.664 2°55.96 126.3 0.1 99 8.3
2010-09-15 06:13:37 51°13.664 2°55.96 126.4 -999 136 8.3
2010-09-15 06:13:43 51°13.664 2°55.96 126.4 0.1 248 8.3
2010-09-15 06:13:47 51°13.664 2°55.96 126.4 -999 336 8.3
2010-09-15 06:13:52 51°13.664 2°55.96 126.3 -999 186 8.2
2010-09-15 06:13:57 51°13.664 2°55.96 126.2 -999 207 8.3
2010-09-15 06:14:02 51°13.664 2°55.959 126.1 0.1 293 8.3
2010-09-15 06:14:07 51°13.664 2°55.959 126.1 0.1 334 8.3
2010-09-15 06:14:12 51°13.665 2°55.959 126.1 0.1 336 8.3
2010-09-15 06:14:17 51°13.665 2°55.959 126.1 0.1 301 8.3
2010-09-15 06:14:22 51°13.664 2°55.959 126.1 0.2 268 8.3
2010-09-15 06:14:27 51°13.663 2°55.96 126.1 0.1 142 8.3
2010-09-15 06:14:32 51°13.663 2°55.959 126.1 0.1 142 8.3
2010-09-15 06:14:37 51°13.663 2°55.959 126.1 -999 196 8.2
2010-09-15 06:14:43 51°13.663 2°55.959 126.1 -999 26 8.3
2010-09-15 06:14:47 51°13.663 2°55.959 126.2 0.1 354 8.2
2010-09-15 06:14:52 51°13.663 2°55.96 126.3 -999 110 8.3
2010-09-15 06:14:57 51°13.663 2°55.96 126.4 -999 211 8.2
2010-09-15 06:15:03 51°13.663 2°55.96 126.4 -999 79 8.2
2010-09-15 06:15:07 51°13.663 2°55.96 126.4 0.1 295 8.2
2010-09-15 06:15:12 51°13.663 2°55.96 126.4 0.1 49 8.2
2010-09-15 06:15:18 51°13.663 2°55.96 126.4 0.1 320 8.2
2010-09-15 06:15:23 51°13.663 2°55.96 126.4 -999 328 8.3
2010-09-15 06:15:27 51°13.663 2°55.96 126.4 0.1 319 8.2
2010-09-15 06:15:31 51°13.663 2°55.961 126.5 0.3 54 8.3
2010-09-15 06:15:38 51°13.663 2°55.96 126.5 0.2 33 8.3
2010-09-15 06:15:43 51°13.663 2°55.96 126.6 0.1 4 8.2
2010-09-15 06:15:47 51°13.662 2°55.96 126.7 0.1 7 8.3
2010-09-15 06:15:52 51°13.662 2°55.96 126.7 0.1 137 8.3
2010-09-15 06:15:57 51°13.663 2°55.96 126.7 0.1 78 8.4
2010-09-15 06:16:03 51°13.663 2°55.959 126.7 0.1 231 8.4
2010-09-15 06:16:07 51°13.663 2°55.96 126.7 0.1 199 8.3
2010-09-15 06:16:13 51°13.662 2°55.96 126.7 -999 336 8.4
2010-09-15 06:16:17 51°13.661 2°55.96 126.6 0.1 45 8.3
2010-09-15 06:16:22 51°13.661 2°55.96 126.5 0.1 51 8.3
2010-09-15 06:16:27 51°13.661 2°55.96 126.5 0.1 176 8.3
2010-09-15 06:16:32 51°13.661 2°55.96 126.6 0.1 174 8.3
2010-09-15 06:16:37 51°13.662 2°55.96 126.8 0.1 34 8.3
2010-09-15 06:16:43 51°13.662 2°55.96 126.8 0.1 61 8.3
2010-09-15 06:16:47 51°13.662 2°55.96 126.6 -999 25 8.3
2010-09-15 06:16:53 51°13.662 2°55.96 126.5 0.2 59 8.3
2010-09-15 06:16:57 51°13.662 2°55.959 126.5 0.1 137 8.3
2010-09-15 06:17:02 51°13.662 2°55.959 126.5 -999 340 8.4
2010-09-15 06:17:07 51°13.662 2°55.959 126.5 0.1 68 8.3
2010-09-15 06:17:11 51°13.662 2°55.959 126.5 0.1 341 8.3
2010-09-15 06:17:18 51°13.662 2°55.96 126.5 -999 343 8.3
2010-09-15 06:17:23 51°13.662 2°55.961 126.5 -999 321 8.3
2010-09-15 06:17:27 51°13.663 2°55.962 126.5 0.1 191 8.3
2010-09-15 06:17:32 51°13.663 2°55.962 126.5 0.1 190 8.2
2010-09-15 06:17:38 51°13.663 2°55.963 126.5 -999 314 8.3
2010-09-15 06:17:43 51°13.663 2°55.963 126.5 0.1 60 8.3
2010-09-15 06:17:47 51°13.662 2°55.963 126.5 0.1 132 8.3
2010-09-15 06:17:52 51°13.663 2°55.962 126.7 0.1 137 8.3
2010-09-15 06:17:57 51°13.663 2°55.962 126.8 0.1 138 8.3
2010-09-15 06:18:03 51°13.663 2°55.962 126.8 0.1 155 8.3
2010-09-15 06:18:07 51°13.663 2°55.961 126.7 0.1 318 8.2
2010-09-15 06:18:12 51°13.663 2°55.962 126.5 0.1 15 8.3
2010-09-15 06:18:17 51°13.663 2°55.961 126.5 -999 196 8.3
2010-09-15 06:18:22 51°13.663 2°55.961 126.4 -999 340 8.2
2010-09-15 06:18:27 51°13.663 2°55.962 126.6 -999 44 8.2
2010-09-15 06:18:33 51°13.663 2°55.962 126.8 0.1 129 8.2
2010-09-15 06:18:37 51°13.663 2°55.962 126.9 0.1 190 8.3
2010-09-15 06:18:42 51°13.663 2°55.962 126.9 -999 237 8.2
2010-09-15 06:18:47 51°13.664 2°55.962 126.7 0.1 90 8.2
2010-09-15 06:18:52 51°13.663 2°55.962 126.7 -999 340 8.2
2010-09-15 06:18:57 51°13.662 2°55.962 126.8 0.1 306 8.2
2010-09-15 06:19:02 51°13.662 2°55.962 126.8 0.1 337 8.2
2010-09-15 06:19:07 51°13.662 2°55.962 126.8 0.1 15 8.2
2010-09-15 06:19:12 51°13.662 2°55.962 126.8 0.1 70 8.2
2010-09-15 06:19:18 51°13.662 2°55.962 126.8 0.1 225 8.2
2010-09-15 06:19:23 51°13.662 2°55.962 126.7 0.1 40 8.2
2010-09-15 06:19:27 51°13.662 2°55.962 126.7 0.1 43 8.2
2010-09-15 06:19:32 51°13.662 2°55.961 126.7 0.2 254 8.2
2010-09-15 06:19:37 51°13.662 2°55.96 126.7 0.2 261 8.2
2010-09-15 06:19:43 51°13.662 2°55.961 126.7 0.1 309 8.3
2010-09-15 06:19:47 51°13.662 2°55.961 126.7 -999 27 8.2
2010-09-15 06:19:52 51°13.662 2°55.961 126.7 -999 67 8.3
2010-09-15 06:19:57 51°13.662 2°55.961 126.6 -999 238 8.2
2010-09-15 06:20:03 51°13.662 2°55.961 126.6 -999 65 8.3
2010-09-15 06:20:07 51°13.662 2°55.961 126.6 -999 168 8.2
2010-09-15 06:20:12 51°13.662 2°55.961 126.6 0.1 216 8.2
2010-09-15 06:20:17 51°13.662 2°55.961 126.6 0.1 251 8.2
2010-09-15 06:20:23 51°13.662 2°55.961 126.6 -999 120 8.2
2010-09-15 06:20:27 51°13.662 2°55.961 126.6 -999 73 8.2
2010-09-15 06:20:33 51°13.662 2°55.961 126.6 0.1 121 8.2
2010-09-15 06:20:37 51°13.662 2°55.961 126.6 -999 186 8.2
2010-09-15 06:20:42 51°13.662 2°55.961 126.6 -999 95 8.2
2010-09-15 06:20:47 51°13.662 2°55.962 126.6 0.1 148 8.2
2010-09-15 06:20:52 51°13.661 2°55.962 126.6 0.1 117 8.2
2010-09-15 06:20:57 51°13.661 2°55.961 126.6 0.1 124 8.2
2010-09-15 06:21:02 51°13.662 2°55.961 126.6 0.1 251 8.2
2010-09-15 06:21:07 51°13.662 2°55.961 126.6 0.1 289 8.2
2010-09-15 06:21:13 51°13.662 2°55.961 126.6 0.1 88 8.1
2010-09-15 06:21:17 51°13.663 2°55.961 126.6 0.1 337 8.1
2010-09-15 06:21:22 51°13.663 2°55.961 126.7 0.1 68 8.2
2010-09-15 06:21:27 51°13.663 2°55.961 126.7 0.1 112 8.1
2010-09-15 06:21:32 51°13.663 2°55.961 126.7 -999 196 8.2
2010-09-15 06:21:37 51°13.663 2°55.961 126.7 -999 6 8.2
2010-09-15 06:21:42 51°13.663 2°55.961 126.8 0.1 50 8.3
2010-09-15 06:21:47 51°13.663 2°55.961 126.9 0.1 79 8.2
2010-09-15 06:21:52 51°13.663 2°55.96 127 -999 327 8.2
2010-09-15 06:21:57 51°13.663 2°55.96 127 -999 337 8.2
2010-09-15 06:22:03 51°13.662 2°55.961 127 0.1 85 8.2
2010-09-15 06:22:07 51°13.662 2°55.96 127 -999 46 8.2
2010-09-15 06:22:12 51°13.662 2°55.96 127 0.1 243 8.2
2010-09-15 06:22:17 51°13.662 2°55.96 127 -999 345 8.2
2010-09-15 06:22:23 51°13.662 2°55.961 127 0.1 31 8.2
2010-09-15 06:22:27 51°13.662 2°55.96 127 -999 340 8.2
2010-09-15 06:22:31 51°13.662 2°55.96 127 0.2 300 8.2
2010-09-15 06:22:37 51°13.662 2°55.96 127 0.2 294 8.2
2010-09-15 06:22:43 51°13.662 2°55.96 127 0.1 240 8.2
2010-09-15 06:22:47 51°13.662 2°55.96 127 -999 233 8.2
2010-09-15 06:22:53 51°13.662 2°55.96 127.1 -999 144 8.2
2010-09-15 06:22:57 51°13.663 2°55.96 127.2 -999 234 8.2
2010-09-15 06:23:02 51°13.662 2°55.96 127.4 -999 168 8.2
2010-09-15 06:23:07 51°13.662 2°55.96 127.8 0.1 210 8.2
2010-09-15 06:23:12 51°13.662 2°55.96 128.2 0.1 113 8.3
2010-09-15 06:23:17 51°13.662 2°55.96 128.6 0.1 141 8.2
2010-09-15 06:23:22 51°13.662 2°55.96 128.9 0.1 110 8.2
2010-09-15 06:23:27 51°13.662 2°55.96 129 0.2 17 8.3
2010-09-15 06:23:32 51°13.663 2°55.96 129 0.2 321 8.2
2010-09-15 06:23:38 51°13.663 2°55.961 128.6 0.2 31 8.2
2010-09-15 06:23:43 51°13.663 2°55.962 127.7 0.4 47 8.2
2010-09-15 06:23:47 51°13.662 2°55.961 126.4 0.2 48 8.2
2010-09-15 06:23:52 51°13.662 2°55.96 125.2 0.1 230 8.2
2010-09-15 06:23:57 51°13.662 2°55.96 124.3 0.2 279 8.2
2010-09-15 06:24:03 51°13.662 2°55.96 123.5 0.1 260 8.2
2010-09-15 06:24:07 51°13.662 2°55.961 122.8 -999 149 8.2
2010-09-15 06:24:12 51°13.662 2°55.961 122.2 -999 111 8.2
2010-09-15 06:24:17 51°13.662 2°55.961 121.4 -999 130 8.2
2010-09-15 06:24:23 51°13.661 2°55.96 120.4 -999 167 8.2
2010-09-15 06:24:27 51°13.661 2°55.96 119.7 0.1 288 8.2
2010-09-15 06:24:31 51°13.661 2°55.961 118.6 -999 92 8.2
2010-09-15 06:24:37 51°13.661 2°55.96 117.7 -999 216 8.2
2010-09-15 06:24:43 51°13.661 2°55.96 116.7 0.1 184 8.1
2010-09-15 06:24:47 51°13.661 2°55.96 115.6 0.1 179 8.2
2010-09-15 06:24:52 51°13.661 2°55.961 114.8 -999 145 8.2
2010-09-15 06:24:57 51°13.661 2°55.96 113.7 0.1 166 8.2
2010-09-15 06:25:03 51°13.661 2°55.96 112.6 0.1 254 8.2
2010-09-15 06:25:07 51°13.661 2°55.959 111.6 0.2 286 8.2
2010-09-15 06:25:12 51°13.661 2°55.96 110.5 0.1 303 8.2
2010-09-15 06:25:17 51°13.661 2°55.96 109.7 0.2 252 8.2
2010-09-15 06:25:22 51°13.661 2°55.959 109.1 0.5 279 8.2
2010-09-15 06:25:27 51°13.662 2°55.957 108.8 1 291 8.2
2010-09-15 06:25:33 51°13.662 2°55.953 108.8 1.5 290 8.3
2010-09-15 06:25:37 51°13.663 2°55.95 108.8 1.9 294 8.4
2010-09-15 06:25:42 51°13.664 2°55.944 108.8 2.4 289 8.7
2010-09-15 06:25:48 51°13.666 2°55.937 109.3 2.8 292 -999
2010-09-15 06:25:54 51°13.668 2°55.93 109.3 3.1 291 -999
2010-09-15 06:25:59 51°13.67 2°55.923 109 3.3 291 -999
2010-09-15 06:26:05 51°13.672 2°55.914 108.5 3.5 291 -999
2010-09-15 06:26:11 51°13.674 2°55.904 107.8 3.8 290 -999
2010-09-15 06:26:16 51°13.676 2°55.896 106.7 4 290 -999
2010-09-15 06:26:21 51°13.678 2°55.887 105.8 4.2 288 -999
2010-09-15 06:26:26 51°13.679 2°55.877 105.5 4.4 287 -999
2010-09-15 06:26:31 51°13.681 2°55.868 105.3 4.5 288 -999
2010-09-15 06:26:36 51°13.683 2°55.859 104.7 4.3 286 -999
2010-09-15 06:26:41 51°13.685 2°55.849 103.8 4.4 285 -999
2010-09-15 06:26:46 51°13.686 2°55.841 102.6 4.3 285 -999
2010-09-15 06:26:51 51°13.688 2°55.832 101.6 4.1 285 -999
2010-09-15 06:26:56 51°13.689 2°55.824 100.5 4 284 -999
2010-09-15 06:27:01 51°13.69 2°55.815 99.4 4 283 -999
2010-09-15 06:27:06 51°13.691 2°55.806 98 3.9 279 -999
2010-09-15 06:27:11 51°13.692 2°55.797 96.4 3.9 278 -999
2010-09-15 06:27:16 51°13.693 2°55.79 94.4 3.8 277 -999
2010-09-15 06:27:21 51°13.693 2°55.782 92.4 3.6 276 -999
2010-09-15 06:27:26 51°13.694 2°55.774 90.4 3.3 272 -999
2010-09-15 06:27:31 51°13.694 2°55.767 88.5 3.3 273 -999
2010-09-15 06:27:36 51°13.694 2°55.76 87.2 3.1 272 15.5
2010-09-15 06:27:40 51°13.694 2°55.755 86.5 2.9 270 15.4
2010-09-15 06:27:46 51°13.694 2°55.749 85.6 2.6 266 15.3
2010-09-15 06:27:51 51°13.694 2°55.745 85 2 269 15.2
2010-09-15 06:27:55 51°13.694 2°55.743 83.4 1.2 274 15.1
2010-09-15 06:28:00 51°13.694 2°55.742 81.4 0.5 286 15.1
2010-09-15 06:28:05 51°13.695 2°55.743 78 0.5 23 15.1
2010-09-15 06:28:10 51°13.696 2°55.745 72.9 1 48 15.1
2010-09-15 06:28:15 51°13.697 2°55.747 66.8 1.2 51 15.3
2010-09-15 06:28:19 51°13.698 2°55.749 60.2 1.4 53 15.3
2010-09-15 06:28:24 51°13.699 2°55.751 53.8 1.3 50 15.1
2010-09-15 06:28:29 51°13.7 2°55.753 48.3 1.1 47 15.3
2010-09-15 06:28:34 51°13.7 2°55.754 44.7 0.6 55 15.6
2010-09-15 06:28:39 51°13.7 2°55.754 41.5 0.1 134 15.6
2010-09-15 06:28:44 51°13.699 2°55.753 38.2 0.5 199 15.6
2010-09-15 06:28:49 51°13.698 2°55.752 35.1 1 210 15.3
2010-09-15 06:28:54 51°13.696 2°55.75 32.7 1.5 208 15.2
2010-09-15 06:28:58 51°13.694 2°55.748 30.9 1.9 210 15.3
2010-09-15 06:29:04 51°13.691 2°55.746 29.1 2.1 209 -999
2010-09-15 06:29:10 51°13.688 2°55.744 27.8 1.9 204 -999
2010-09-15 06:29:15 51°13.685 2°55.743 26.9 1.7 203 -999
2010-09-15 06:29:21 51°13.684 2°55.742 26.3 1 202 -999
2010-09-15 06:29:26 51°13.684 2°55.742 24.9 0.2 33 -999
2010-09-15 06:29:31 51°13.685 2°55.742 20 0.9 14 -999
2010-09-15 06:29:36 51°13.687 2°55.743 14.9 1.6 12 -999
2010-09-15 06:29:41 51°13.69 2°55.744 7.7 1.9 7 -999
2010-09-15 06:29:46 51°13.693 2°55.743 358.8 2.3 359 -999
2010-09-15 06:29:51 51°13.697 2°55.743 351.8 2.7 352 -999
2010-09-15 06:29:55 51°13.701 2°55.74 346.1 3 343 14.7
2010-09-15 06:30:00 51°13.705 2°55.738 340.7 3.4 340 14.8
2010-09-15 06:30:05 51°13.71 2°55.734 337.5 3.9 334 14.8
2010-09-15 06:30:10 51°13.716 2°55.729 333.4 4.6 332 14.5
2010-09-15 06:30:15 51°13.722 2°55.724 331.1 5.1 331 14.6
2010-09-15 06:30:20 51°13.729 2°55.717 330.3 5.5 331 14.6
2010-09-15 06:30:25 51°13.737 2°55.711 330.5 6.3 331 14.5
2010-09-15 06:30:29 51°13.743 2°55.706 331.9 6.8 333 14.4
2010-09-15 06:30:30 51°13.745 2°55.704 332.6 -999 150 13.8
2010-09-15 06:30:30 51°13.745 2°55.704 332.6 0.5 331 14.1
2010-09-15 06:30:30 51°13.745 2°55.704 332.6 0.2 152 13.8
2010-09-15 06:30:49 51°13.781 2°55.676 332.8 7.5 332 13.5
2010-09-15 06:30:54 51°13.792 2°55.666 333.4 8.7 332 13.6
2010-09-15 06:30:59 51°13.803 2°55.657 334 8.7 333 13.6
2010-09-15 06:31:04 51°13.815 2°55.648 334.8 8.9 334 13.8
2010-09-15 06:31:09 51°13.826 2°55.639 335.5 9.2 334 13.7
2010-09-15 06:31:14 51°13.838 2°55.63 335.9 9.4 334 13.5
2010-09-15 06:31:18 51°13.847 2°55.623 335.7 9.5 333 13.4
2010-09-15 06:31:23 51°13.859 2°55.613 335 9.6 333 13.1
2010-09-15 06:31:28 51°13.871 2°55.604 335.4 9.7 334 13
2010-09-15 06:31:33 51°13.884 2°55.595 335.9 9.8 335 12.5
2010-09-15 06:31:38 51°13.896 2°55.586 336.1 9.8 335 13.3
2010-09-15 06:31:43 51°13.908 2°55.576 336.3 10 335 12.7
2010-09-15 06:31:47 51°13.918 2°55.569 337.5 10.2 336 12.9
2010-09-15 06:31:52 51°13.93 2°55.561 337.8 10.1 337 13.1
2010-09-15 06:31:57 51°13.943 2°55.551 338 10.3 337 13
2010-09-15 06:32:02 51°13.956 2°55.542 338.1 10.4 337 12.9
2010-09-15 06:32:07 51°13.97 2°55.533 338.4 10.5 337 12.9
2010-09-15 06:32:12 51°13.983 2°55.524 338.4 10.6 338 12.9
2010-09-15 06:32:17 51°13.997 2°55.515 337.9 10.6 337 12.7
2010-09-15 06:32:22 51°14.01 2°55.505 337.6 10.6 337 12.8
2010-09-15 06:32:27 51°14.024 2°55.496 338.3 10.7 337 12.7
2010-09-15 06:32:32 51°14.038 2°55.486 337.7 10.9 336 12.7
2010-09-15 06:32:37 51°14.052 2°55.476 336.8 10.9 336 12.6
2010-09-15 06:32:43 51°14.069 2°55.464 336.8 11 336 12.5
2010-09-15 06:32:47 51°14.08 2°55.456 337.3 11.1 336 12.5
2010-09-15 06:32:51 51°14.091 2°55.448 336.9 11.1 335 12.8
2010-09-15 06:32:57 51°14.108 2°55.435 336.1 11.1 334 12.6
2010-09-15 06:33:03 51°14.125 2°55.422 336 11.3 334 -999
2010-09-15 06:33:07 51°14.136 2°55.413 334.3 11.3 332 12.5
2010-09-15 06:33:12 51°14.15 2°55.401 333.6 11.2 332 12.5
2010-09-15 06:33:17 51°14.164 2°55.389 333.1 11.5 332 13
2010-09-15 06:33:23 51°14.181 2°55.374 332 11.6 330 -999
2010-09-15 06:33:27 51°14.192 2°55.364 331.7 11.7 330 12.6
2010-09-15 06:33:33 51°14.209 2°55.347 330.8 11.7 328 12.6
2010-09-15 06:33:37 51°14.22 2°55.336 329.8 11.8 328 12.5
2010-09-15 06:33:43 51°14.237 2°55.32 329.7 11.8 328 12.6
2010-09-15 06:33:47 51°14.248 2°55.309 329.9 11.9 328 -999
2010-09-15 06:33:53 51°14.265 2°55.292 328.8 12 327 -999
2010-09-15 06:33:58 51°14.279 2°55.278 328.2 11.9 327 12.2
2010-09-15 06:34:03 51°14.293 2°55.264 328.2 12 328 12.5
2010-09-15 06:34:07 51°14.305 2°55.252 328.5 12.1 328 12.4
2010-09-15 06:34:12 51°14.32 2°55.239 330 12.1 331 12.5
2010-09-15 06:34:17 51°14.334 2°55.227 331.4 12 332 12
2010-09-15 06:34:23 51°14.352 2°55.214 334.5 11.9 336 12.6
2010-09-15 06:34:27 51°14.364 2°55.205 335.6 11.8 334 11.6
2010-09-15 06:34:32 51°14.378 2°55.192 334.8 11.8 331 12.1
2010-09-15 06:34:37 51°14.392 2°55.179 332.5 11.9 329 12.1
2010-09-15 06:34:42 51°14.406 2°55.166 330.9 11.7 329 12.6
2010-09-15 06:34:47 51°14.42 2°55.152 329.5 11.8 328 12.4
2010-09-15 06:34:52 51°14.434 2°55.138 328.9 11.9 328 12.7
2010-09-15 06:34:58 51°14.45 2°55.121 327.8 11.9 326 12.5
2010-09-15 06:35:03 51°14.464 2°55.105 326.4 12 325 12.3
2010-09-15 06:35:07 51°14.475 2°55.093 325.8 12.2 325 13.1
2010-09-15 06:35:12 51°14.489 2°55.077 325.7 12.3 324 13.3
2010-09-15 06:35:18 51°14.505 2°55.057 325 12.5 324 13
2010-09-15 06:35:23 51°14.518 2°55.041 323.9 12.3 323 12.8
2010-09-15 06:35:27 51°14.53 2°55.028 324.4 12.4 325 13.1
2010-09-15 06:35:32 51°14.543 2°55.011 324.5 12.6 324 12.9
2010-09-15 06:35:37 51°14.556 2°54.994 323.8 12.7 324 13.2
2010-09-15 06:35:43 51°14.573 2°54.974 323 12.7 324 13.5
2010-09-15 06:35:47 51°14.585 2°54.961 323.8 12.8 326 13.1
2010-09-15 06:35:52 51°14.6 2°54.947 325.5 12.8 329 13.2
2010-09-15 06:35:57 51°14.615 2°54.931 327 12.9 329 13.3
2010-09-15 06:36:03 51°14.634 2°54.914 328.5 13 330 13.6
2010-09-15 06:36:07 51°14.647 2°54.903 328.9 13 331 13
2010-09-15 06:36:11 51°14.659 2°54.893 329.7 12.9 332 13.4
2010-09-15 06:36:17 51°14.678 2°54.876 329.5 13 331 13.3
2010-09-15 06:36:23 51°14.697 2°54.859 328 12.9 330 13.4
2010-09-15 06:36:27 51°14.709 2°54.848 327.4 12.8 331 13.5
2010-09-15 06:36:32 51°14.724 2°54.834 327.5 12.8 330 13
2010-09-15 06:36:37 51°14.74 2°54.82 327 12.8 330 13.6
2010-09-15 06:36:42 51°14.755 2°54.806 326.9 12.6 329 13.1
2010-09-15 06:36:47 51°14.769 2°54.792 326.7 12.5 330 13.5
2010-09-15 06:36:52 51°14.785 2°54.778 326.9 12.7 330 13.3
2010-09-15 06:36:57 51°14.8 2°54.764 326.8 12.7 330 13.7
2010-09-15 06:37:03 51°14.819 2°54.747 327 12.8 331 13.4
2010-09-15 06:37:07 51°14.831 2°54.735 327.2 12.9 330 13.4
2010-09-15 06:37:12 51°14.847 2°54.721 327 13 331 12.9
2010-09-15 06:37:17 51°14.862 2°54.706 327.4 12.9 330 12.2
2010-09-15 06:37:23 51°14.881 2°54.689 327.3 13.1 330 12.2
2010-09-15 06:37:27 51°14.893 2°54.678 327.2 12.9 330 12.1
2010-09-15 06:37:32 51°14.909 2°54.664 325.9 12.8 330 12.8
2010-09-15 06:37:37 51°14.925 2°54.65 326.7 12.8 330 12.3
2010-09-15 06:37:43 51°14.942 2°54.632 324.5 12.7 327 11.4
2010-09-15 06:37:47 51°14.955 2°54.62 324 12.9 329 12
2010-09-15 06:37:51 51°14.967 2°54.608 324.3 13 328 12.2
2010-09-15 06:37:57 51°14.985 2°54.589 323.6 12.8 326 11.4
2010-09-15 06:38:03 51°15.002 2°54.571 323 12.8 326 11.8
2010-09-15 06:38:07 51°15.014 2°54.557 322.3 12.7 325 11.6
2010-09-15 06:38:12 51°15.029 2°54.542 322.8 12.9 327 11.5
2010-09-15 06:38:17 51°15.044 2°54.525 322.4 12.9 325 11.3
2010-09-15 06:38:23 51°15.061 2°54.506 322.5 13 325 11
2010-09-15 06:38:27 51°15.073 2°54.493 322.4 13.1 325 11.3
2010-09-15 06:38:31 51°15.085 2°54.48 322.4 13 326 11.1
2010-09-15 06:38:37 51°15.103 2°54.46 322.3 12.9 325 11
2010-09-15 06:38:42 51°15.117 2°54.445 322.3 12.9 326 11.6
2010-09-15 06:38:47 51°15.132 2°54.428 322.1 12.8 326 11.1
2010-09-15 06:38:53 51°15.149 2°54.408 322.1 12.8 325 10.7
2010-09-15 06:38:57 51°15.161 2°54.396 322.3 12.8 325 10.9
2010-09-15 06:39:02 51°15.176 2°54.379 322.3 12.8 325 10.9
2010-09-15 06:39:07 51°15.191 2°54.363 322.2 13 325 11.1
2010-09-15 06:39:12 51°15.205 2°54.346 321.9 12.8 324 11
2010-09-15 06:39:17 51°15.22 2°54.33 322.2 12.9 325 11.4
2010-09-15 06:39:22 51°15.234 2°54.313 321.9 13 325 11.2
2010-09-15 06:39:27 51°15.249 2°54.296 321.6 13 324 10.8
2010-09-15 06:39:31 51°15.261 2°54.283 321.1 12.8 324 11
2010-09-15 06:39:37 51°15.278 2°54.263 321.6 12.9 324 11.6
2010-09-15 06:39:43 51°15.295 2°54.242 321.4 12.8 323 11
2010-09-15 06:39:47 51°15.306 2°54.229 320.4 12.7 324 11.5
2010-09-15 06:39:52 51°15.321 2°54.211 320.9 12.9 323 11.5
2010-09-15 06:39:57 51°15.335 2°54.195 320.6 12.9 323 11.7
2010-09-15 06:40:03 51°15.352 2°54.174 319.9 12.8 322 11.3
2010-09-15 06:40:07 51°15.363 2°54.16 319.4 12.8 323 11.3
2010-09-15 06:40:12 51°15.377 2°54.143 319.4 12.7 322 11.8
2010-09-15 06:40:17 51°15.391 2°54.126 319 12.7 322 11.6
2010-09-15 06:40:23 51°15.407 2°54.103 317.5 12.6 318 11.8
2010-09-15 06:40:27 51°15.418 2°54.088 316.7 12.7 320 11.9
2010-09-15 06:40:32 51°15.43 2°54.069 315.8 12.7 317 12.6
2010-09-15 06:40:37 51°15.443 2°54.049 314.8 12.9 317 12.6
2010-09-15 06:40:42 51°15.456 2°54.03 314.4 12.7 316 11.9
2010-09-15 06:40:47 51°15.469 2°54.011 314.4 12.7 318 12
2010-09-15 06:40:52 51°15.482 2°53.991 314.7 12.7 316 12.8
2010-09-15 06:40:56 51°15.492 2°53.976 314.9 12.7 317 12.5
2010-09-15 06:41:02 51°15.508 2°53.953 315.3 12.8 317 12.4
2010-09-15 06:41:08 51°15.524 2°53.93 315.4 13 319 12.8
2010-09-15 06:41:12 51°15.535 2°53.915 316.5 13.1 319 12.1
2010-09-15 06:41:17 51°15.549 2°53.897 316.4 12.9 320 12.3
2010-09-15 06:41:22 51°15.562 2°53.879 317.2 12.8 320 12.8
2010-09-15 06:41:27 51°15.576 2°53.86 317.7 12.9 320 12.6
2010-09-15 06:41:32 51°15.59 2°53.842 317.4 13 319 12.8
2010-09-15 06:41:37 51°15.604 2°53.823 316.9 13.1 320 13
2010-09-15 06:41:43 51°15.62 2°53.801 317.4 13.1 320 12.7
2010-09-15 06:41:47 51°15.631 2°53.786 317.3 13.1 318 12.9
2010-09-15 06:41:52 51°15.645 2°53.767 317.3 12.9 320 12.6
2010-09-15 06:41:57 51°15.659 2°53.749 317.9 13 320 13.3
2010-09-15 06:42:02 51°15.672 2°53.731 318.2 12.9 321 13
2010-09-15 06:42:07 51°15.686 2°53.713 318.3 12.9 321 13.1
2010-09-15 06:42:12 51°15.7 2°53.696 318.6 12.8 322 12.8
2010-09-15 06:42:17 51°15.714 2°53.677 318.9 12.8 322 13.4
2010-09-15 06:42:22 51°15.729 2°53.659 318.7 12.9 321 13.4
2010-09-15 06:42:27 51°15.742 2°53.641 318.2 12.8 320 13.2
2010-09-15 06:42:32 51°15.756 2°53.623 317.8 12.8 321 13.5
2010-09-15 06:42:37 51°15.77 2°53.604 318.5 13 321 13.5
2010-09-15 06:42:42 51°15.784 2°53.586 318.8 13.1 321 13.1
2010-09-15 06:42:48 51°15.8 2°53.564 318.7 13 320 13.6
2010-09-15 06:42:52 51°15.811 2°53.55 318.2 12.9 321 13
2010-09-15 06:42:57 51°15.825 2°53.532 318.2 12.9 321 13.4
2010-09-15 06:43:02 51°15.839 2°53.514 318.5 12.9 321 13.3
2010-09-15 06:43:07 51°15.853 2°53.496 318.4 13.1 322 13.7
2010-09-15 06:43:12 51°15.868 2°53.48 320.4 13.1 325 13.2
2010-09-15 06:43:17 51°15.883 2°53.463 321.5 13.1 324 13.7
2010-09-15 06:43:22 51°15.897 2°53.447 322.3 12.9 326 13.5
2010-09-15 06:43:27 51°15.912 2°53.43 322.6 13 325 13.5
2010-09-15 06:43:32 51°15.927 2°53.414 323.4 13.1 327 13.3
2010-09-15 06:43:37 51°15.942 2°53.398 324 13.1 325 13.4
2010-09-15 06:43:42 51°15.958 2°53.382 325 13.1 328 13.4
2010-09-15 06:43:47 51°15.972 2°53.366 324.3 13.2 325 13.6
2010-09-15 06:43:52 51°15.988 2°53.351 324.2 13.2 328 13.3
2010-09-15 06:43:57 51°16.003 2°53.335 324.6 12.9 327 13.6
2010-09-15 06:44:02 51°16.018 2°53.32 325 12.9 328 14.2
2010-09-15 06:44:07 51°16.034 2°53.305 325.2 12.9 328 13.6
2010-09-15 06:44:12 51°16.048 2°53.289 324.8 12.8 327 13.4
2010-09-15 06:44:17 51°16.063 2°53.274 325.2 12.8 327 14.4
2010-09-15 06:44:22 51°16.078 2°53.259 324.2 12.4 327 13.2
2010-09-15 06:44:27 51°16.092 2°53.245 324.4 12.2 328 14.2
2010-09-15 06:44:32 51°16.107 2°53.231 324.6 12.2 328 -999
2010-09-15 06:44:37 51°16.121 2°53.217 324.5 11.9 330 13.9
2010-09-15 06:44:43 51°16.138 2°53.2 325.3 12.2 327 14
2010-09-15 06:44:48 51°16.153 2°53.186 324.8 12.4 328 14
2010-09-15 06:44:52 51°16.164 2°53.174 324.3 12.4 328 13.6
2010-09-15 06:44:57 51°16.179 2°53.159 325 12.5 328 14.3
2010-09-15 06:45:03 51°16.197 2°53.141 324.6 12.8 328 13.8
2010-09-15 06:45:07 51°16.209 2°53.129 324.6 12.7 328 13.5
2010-09-15 06:45:12 51°16.224 2°53.114 324.9 12.7 327 14.4
2010-09-15 06:45:17 51°16.239 2°53.099 324.9 12.7 328 13.6
2010-09-15 06:45:22 51°16.254 2°53.084 324.5 12.9 328 13.7
2010-09-15 06:45:27 51°16.269 2°53.069 324.5 12.9 328 14
2010-09-15 06:45:32 51°16.284 2°53.055 325.6 12.9 330 13.5
2010-09-15 06:45:37 51°16.3 2°53.039 326.8 13.1 328 13.7
2010-09-15 06:45:42 51°16.316 2°53.025 327.3 13.1 330 13.7
2010-09-15 06:45:47 51°16.332 2°53.011 327.9 13.1 330 13.6
2010-09-15 06:45:52 51°16.348 2°52.998 328.6 13.2 333 14.2
2010-09-15 06:45:57 51°16.364 2°52.984 329.3 12.9 332 13.4
2010-09-15 06:46:02 51°16.38 2°52.972 329.8 12.9 334 14.2
2010-09-15 06:46:07 51°16.396 2°52.958 329.9 12.8 332 13.6
2010-09-15 06:46:12 51°16.413 2°52.945 329.7 12.9 334 14.4
2010-09-15 06:46:17 51°16.428 2°52.932 330 13.1 332 13.9
2010-09-15 06:46:22 51°16.444 2°52.917 329.6 13.1 332 13.5
2010-09-15 06:46:27 51°16.461 2°52.905 329.3 12.9 332 13.3
2010-09-15 06:46:32 51°16.477 2°52.892 329.7 12.9 334 13.7
2010-09-15 06:46:37 51°16.493 2°52.879 330.3 13 332 13.4
2010-09-15 06:46:42 51°16.509 2°52.865 330.1 13 332 13.3
2010-09-15 06:46:47 51°16.525 2°52.852 330.1 13.1 333 13.5
2010-09-15 06:46:52 51°16.541 2°52.84 330.7 13.1 334 13.7
2010-09-15 06:46:57 51°16.558 2°52.827 332 13.2 335 13.2
2010-09-15 06:47:02 51°16.575 2°52.816 332.9 13.2 338 13
2010-09-15 06:47:07 51°16.591 2°52.804 333.5 13.1 336 13.5
2010-09-15 06:47:12 51°16.608 2°52.794 334.5 13.2 338 13.4
2010-09-15 06:47:17 51°16.625 2°52.782 334.4 13.2 336 13.2
2010-09-15 06:47:23 51°16.646 2°52.77 335.2 13.1 339 13.4
2010-09-15 06:47:27 51°16.659 2°52.76 335.2 13.2 337 13.3
2010-09-15 06:47:32 51°16.676 2°52.748 334.7 13.3 337 12.2
2010-09-15 06:47:37 51°16.693 2°52.738 334.7 13.1 338 12.5
2010-09-15 06:47:42 51°16.71 2°52.727 335.4 13.2 337 12.7
2010-09-15 06:47:48 51°16.73 2°52.713 334.9 13.3 337 12.1
2010-09-15 06:47:52 51°16.743 2°52.704 334.5 13 337 12.1
2010-09-15 06:47:57 51°16.761 2°52.694 334.8 13.1 337 11.6
2010-09-15 06:48:02 51°16.777 2°52.681 334.7 13.2 336 11.6
2010-09-15 06:48:07 51°16.794 2°52.671 335.1 13.2 338 11.4
2010-09-15 06:48:12 51°16.811 2°52.659 334.2 13.2 336 11.8
2010-09-15 06:48:17 51°16.828 2°52.648 334.7 13.2 338 10.9
2010-09-15 06:48:22 51°16.845 2°52.637 334.8 13 337 11.9
2010-09-15 06:48:27 51°16.862 2°52.627 335.7 13.2 340 12.2
2010-09-15 06:48:32 51°16.878 2°52.616 334.9 13.1 336 11.3
2010-09-15 06:48:37 51°16.895 2°52.603 334 13.2 335 11.4
2010-09-15 06:48:42 51°16.911 2°52.592 334.3 13.2 336 11.2
2010-09-15 06:48:47 51°16.928 2°52.58 333.8 13 337 11.4
2010-09-15 06:48:52 51°16.945 2°52.569 335.1 13.1 337 12.1
2010-09-15 06:48:57 51°16.962 2°52.556 334 13.2 335 11.9
2010-09-15 06:49:02 51°16.979 2°52.544 333.9 13.3 336 11.9
2010-09-15 06:49:07 51°16.995 2°52.532 334.6 13.3 335 11.1
2010-09-15 06:49:12 51°17.012 2°52.522 334.7 13.2 339 11.9
2010-09-15 06:49:17 51°17.029 2°52.509 334.4 13.4 335 11.4
2010-09-15 06:49:23 51°17.049 2°52.496 334.3 13.2 337 11.7
2010-09-15 06:49:27 51°17.063 2°52.486 335.1 13.2 336 11.3
2010-09-15 06:49:32 51°17.08 2°52.475 335.1 13.3 337 11.8
2010-09-15 06:49:37 51°17.097 2°52.464 335 13.4 337 11.9
2010-09-15 06:49:42 51°17.114 2°52.452 334.9 13.3 338 11.6
2010-09-15 06:49:48 51°17.134 2°52.439 335.4 13.4 338 11.6
2010-09-15 06:49:52 51°17.148 2°52.432 337.6 13.4 343 11.6
2010-09-15 06:49:57 51°17.167 2°52.424 341 13.5 344 11.9
2010-09-15 06:50:03 51°17.188 2°52.415 342.1 13.4 346 11.6
2010-09-15 06:50:08 51°17.207 2°52.409 345.8 13.7 348 12
2010-09-15 06:50:12 51°17.221 2°52.403 344.8 13.5 347 12
2010-09-15 06:50:17 51°17.24 2°52.398 346.8 13.4 350 12.2
2010-09-15 06:50:22 51°17.258 2°52.394 348.4 13.4 351 12.5
2010-09-15 06:50:27 51°17.277 2°52.389 349.7 13.6 351 12.2
2010-09-15 06:50:32 51°17.296 2°52.385 350.2 13.7 354 11.8
2010-09-15 06:50:37 51°17.314 2°52.379 349.9 13.8 349 11.7
2010-09-15 06:50:42 51°17.333 2°52.377 350.9 13.6 355 12.1
2010-09-15 06:50:47 51°17.351 2°52.37 350.8 13.5 347 12.4
2010-09-15 06:50:52 51°17.37 2°52.367 349.4 13.5 354 12
2010-09-15 06:50:57 51°17.388 2°52.361 350.1 13.4 351 12
2010-09-15 06:51:02 51°17.407 2°52.359 351.4 13.3 354 12.5
2010-09-15 06:51:07 51°17.425 2°52.355 352.2 13.5 351 12.8
2010-09-15 06:51:12 51°17.444 2°52.35 351.5 13.5 351 11.9
2010-09-15 06:51:17 51°17.462 2°52.348 351.2 13.5 354 11.7
2010-09-15 06:51:22 51°17.48 2°52.344 351.3 13.3 353 12.7
2010-09-15 06:51:27 51°17.499 2°52.341 353 13.5 353 12.2
2010-09-15 06:51:32 51°17.518 2°52.337 351.2 13.5 352 12.3
2010-09-15 06:51:37 51°17.536 2°52.332 352 13.4 351 12.5
2010-09-15 06:51:42 51°17.555 2°52.329 351.5 13.6 355 12.2
2010-09-15 06:51:48 51°17.577 2°52.324 352.2 13.7 352 12
2010-09-15 06:51:52 51°17.592 2°52.32 350.4 13.3 351 12
2010-09-15 06:51:57 51°17.611 2°52.318 352.7 13.5 356 12.8
2010-09-15 06:52:02 51°17.629 2°52.312 349.9 13.5 350 12.1
2010-09-15 06:52:07 51°17.648 2°52.307 349.1 13.6 350 11.7
2010-09-15 06:52:12 51°17.666 2°52.302 350.2 13.6 351 11.9
2010-09-15 06:52:17 51°17.685 2°52.298 350.9 13.6 351 12
2010-09-15 06:52:22 51°17.703 2°52.295 351.2 13.4 354 12.5
2010-09-15 06:52:28 51°17.726 2°52.29 352.4 13.8 352 12
2010-09-15 06:52:32 51°17.741 2°52.29 352.5 13.6 357 12.2
2010-09-15 06:52:37 51°17.76 2°52.287 354.8 13.5 358 12.7
2010-09-15 06:52:42 51°17.779 2°52.287 358.6 13.8 358 12.2
2010-09-15 06:52:47 51°17.797 2°52.287 356.5 13.6 359 11.9
2010-09-15 06:52:52 51°17.816 2°52.285 356.4 13.5 359 12.4
2010-09-15 06:52:57 51°17.835 2°52.287 359.8 13.6 2 11.8
2010-09-15 06:53:02 51°17.854 2°52.285 359.5 13.6 357 12
2010-09-15 06:53:07 51°17.872 2°52.287 359.6 13.6 3 11.9
2010-09-15 06:53:12 51°17.891 2°52.288 1.9 13.6 4 12.9
2010-09-15 06:53:16 51°17.906 2°52.288 359.8 13.7 3 12.1
2010-09-15 06:53:22 51°17.929 2°52.294 4.6 13.8 7 12.2
2010-09-15 06:53:27 51°17.948 2°52.296 5.1 13.8 7 12.8
2010-09-15 06:53:32 51°17.967 2°52.301 7 13.9 8 11.7
2010-09-15 06:53:36 51°17.982 2°52.305 9.5 13.8 10 12.2
2010-09-15 06:53:42 51°18.005 2°52.309 8.6 13.8 6 12.2
2010-09-15 06:53:47 51°18.023 2°52.317 11 13.9 15 12.8
2010-09-15 06:53:52 51°18.042 2°52.322 10.4 14 10 12
2010-09-15 06:53:57 51°18.061 2°52.326 8 13.8 8 11.7
2010-09-15 06:54:02 51°18.079 2°52.334 11.7 13.5 14 12.7
2010-09-15 06:54:07 51°18.098 2°52.336 11 13.7 5 12.7
2010-09-15 06:54:12 51°18.117 2°52.339 6 13.7 5 12.2
2010-09-15 06:54:17 51°18.136 2°52.346 8.4 13.9 12 12.6
2010-09-15 06:54:22 51°18.155 2°52.349 7.9 13.8 6 12.7
2010-09-15 06:54:28 51°18.178 2°52.357 9.6 13.9 13 12.5
2010-09-15 06:54:32 51°18.193 2°52.361 10.7 13.7 11 12.8
2010-09-15 06:54:37 51°18.211 2°52.365 9.8 13.6 9 12.5
2010-09-15 06:54:42 51°18.231 2°52.373 12.3 14.1 14 12.8
2010-09-15 06:54:48 51°18.254 2°52.377 10.2 13.9 7 12.7
2010-09-15 06:54:52 51°18.269 2°52.383 11 13.8 12 12.5
2010-09-15 06:54:57 51°18.288 2°52.388 11.1 14.1 8 12.5
2010-09-15 06:55:02 51°18.307 2°52.394 9.9 13.8 10 12.8
2010-09-15 06:55:07 51°18.325 2°52.403 11.7 14.1 16 13.5
2010-09-15 06:55:12 51°18.345 2°52.406 11.7 14.1 9 13
2010-09-15 06:55:17 51°18.364 2°52.411 7.9 13.9 10 12.3
2010-09-15 06:55:22 51°18.383 2°52.418 12.1 13.9 12 12.8
2010-09-15 06:55:27 51°18.402 2°52.42 9.6 13.8 6 12.8
2010-09-15 06:55:32 51°18.421 2°52.425 7.1 14 9 12.3
2010-09-15 06:55:37 51°18.44 2°52.43 9.4 13.9 11 12.8
2010-09-15 06:55:43 51°18.462 2°52.436 9.6 13.8 8 12.7
2010-09-15 06:55:47 51°18.477 2°52.442 9.8 13.8 13 13.4
2010-09-15 06:55:52 51°18.496 2°52.446 10.9 13.7 10 12.5
2010-09-15 06:55:57 51°18.515 2°52.453 10 13.9 11 12.9
2010-09-15 06:56:02 51°18.534 2°52.459 12.1 14.1 11 13.6
2010-09-15 06:56:07 51°18.553 2°52.464 10.9 13.7 10 13.2
2010-09-15 06:56:12 51°18.571 2°52.472 13.3 13.7 15 13.7
2010-09-15 06:56:17 51°18.591 2°52.476 11.2 13.9 8 13.8
2010-09-15 06:56:22 51°18.609 2°52.483 9.3 13.8 14 12.9
2010-09-15 06:56:28 51°18.632 2°52.492 12.6 13.9 14 13.7
2010-09-15 06:56:32 51°18.647 2°52.495 11.5 13.9 9 13.5
2010-09-15 06:56:36 51°18.662 2°52.499 9.6 13.8 11 13.5
2010-09-15 06:56:42 51°18.684 2°52.508 11.2 13.9 13 13.4
2010-09-15 06:56:48 51°18.706 2°52.513 11.1 13.8 9 13.4
2010-09-15 06:56:52 51°18.721 2°52.52 12.4 13.9 16 13.6
2010-09-15 06:56:56 51°18.736 2°52.522 10.2 13.8 9 13.4
2010-09-15 06:57:02 51°18.759 2°52.532 11.3 13.8 13 13
2010-09-15 06:57:07 51°18.778 2°52.537 11.6 13.9 11 13.5
2010-09-15 06:57:12 51°18.797 2°52.544 12.2 13.9 11 14.1
2010-09-15 06:57:17 51°18.816 2°52.548 10.5 13.8 7 13.5
2010-09-15 06:57:22 51°18.834 2°52.556 11.4 13.9 13 14.4
2010-09-15 06:57:27 51°18.853 2°52.56 9.8 13.9 8 14
2010-09-15 06:57:32 51°18.872 2°52.568 11 14 15 13.9
2010-09-15 06:57:37 51°18.891 2°52.571 9.5 14 8 13.6
2010-09-15 06:57:42 51°18.91 2°52.577 9.8 13.9 11 14.5
2010-09-15 06:57:47 51°18.929 2°52.581 9.1 13.8 9 14.3
2010-09-15 06:57:52 51°18.947 2°52.589 11.3 13.8 14 14.3
2010-09-15 06:57:56 51°18.963 2°52.591 10.2 14.3 8 14.5
2010-09-15 06:58:02 51°18.986 2°52.599 10.5 13.9 12 13.8
2010-09-15 06:58:08 51°19.008 2°52.607 10.2 13.8 11 14.2
2010-09-15 06:58:12 51°19.024 2°52.609 10.8 14 9 14.5
2010-09-15 06:58:16 51°19.039 2°52.615 10.6 14 12 13.9
2010-09-15 06:58:22 51°19.062 2°52.621 11.6 14 8 14.4
2010-09-15 06:58:27 51°19.08 2°52.628 9.9 13.8 11 14.5
2010-09-15 06:58:32 51°19.099 2°52.634 12.3 14 13 15
2010-09-15 06:58:37 51°19.119 2°52.638 10.9 13.9 7 15
2010-09-15 06:58:42 51°19.137 2°52.645 10 13.8 14 14.7
2010-09-15 06:58:48 51°19.16 2°52.648 10.7 13.8 6 15.4
2010-09-15 06:58:52 51°19.175 2°52.653 6.5 13.7 8 15
2010-09-15 06:58:57 51°19.194 2°52.657 9.5 13.7 7 15.1
2010-09-15 06:59:02 51°19.213 2°52.661 7.1 13.7 7 15.5
2010-09-15 06:59:08 51°19.235 2°52.668 8.4 13.8 12 15.4
2010-09-15 06:59:12 51°19.25 2°52.67 8.5 13.8 7 15.8
2010-09-15 06:59:16 51°19.266 2°52.672 5.5 13.7 6 15.3
2010-09-15 06:59:22 51°19.288 2°52.678 7.8 13.8 10 15.8
2010-09-15 06:59:27 51°19.308 2°52.68 7.3 13.8 4 15.6
2010-09-15 06:59:32 51°19.327 2°52.686 7.4 13.9 9 16
2010-09-15 06:59:37 51°19.346 2°52.69 8.5 14.1 8 15.6
2010-09-15 06:59:42 51°19.365 2°52.696 8.8 14 11 15.6
2010-09-15 06:59:47 51°19.383 2°52.702 10.3 14 12 15.9
2010-09-15 06:59:52 51°19.402 2°52.708 10.4 13.7 12 15.9
2010-09-15 06:59:57 51°19.421 2°52.713 11.4 14 10 16
2010-09-15 07:00:02 51°19.44 2°52.719 10 14.1 11 16.5
2010-09-15 07:00:07 51°19.459 2°52.726 11.2 14 13 16.2
2010-09-15 07:00:12 51°19.477 2°52.73 11.3 13.9 10 16.6
2010-09-15 07:00:17 51°19.497 2°52.737 10.7 14 13 16.7
2010-09-15 07:00:22 51°19.516 2°52.741 9.1 13.9 9 16.4
2010-09-15 07:00:27 51°19.535 2°52.749 12 14 12 16.2
2010-09-15 07:00:32 51°19.554 2°52.752 8.8 13.9 7 16.1
2010-09-15 07:00:37 51°19.572 2°52.757 7.1 13.7 9 16.6
2010-09-15 07:00:42 51°19.591 2°52.762 8.8 13.8 10 16.8
2010-09-15 07:00:47 51°19.61 2°52.767 9.4 13.8 9 16.4
2010-09-15 07:00:52 51°19.629 2°52.773 9.4 13.9 12 16.4
2010-09-15 07:00:56 51°19.644 2°52.777 9.2 13.8 9 17
2010-09-15 07:01:02 51°19.667 2°52.782 8.8 13.9 8 16.5
2010-09-15 07:01:07 51°19.686 2°52.788 9.4 14.1 10 16.7
2010-09-15 07:01:12 51°19.705 2°52.792 7.7 14 7 17
2010-09-15 07:01:17 51°19.724 2°52.799 8.8 14 13 17.2
2010-09-15 07:01:22 51°19.743 2°52.803 9 14 10 17.2
2010-09-15 07:01:28 51°19.766 2°52.809 9 14 10 17.4
2010-09-15 07:01:32 51°19.781 2°52.814 8.8 13.9 9 17.3
2010-09-15 07:01:37 51°19.8 2°52.819 9.8 14.1 10 17.4
2010-09-15 07:01:42 51°19.82 2°52.825 9.5 14.1 12 16.7
2010-09-15 07:01:47 51°19.839 2°52.831 10.8 14 10 17.2
2010-09-15 07:01:52 51°19.858 2°52.839 11 14 12 17.3
2010-09-15 07:01:57 51°19.876 2°52.846 12.4 14.1 13 17.5
2010-09-15 07:02:03 51°19.899 2°52.854 12.5 14 13 17.6
2010-09-15 07:02:07 51°19.914 2°52.862 13.6 14 17 17.4
2010-09-15 07:02:12 51°19.933 2°52.869 14.8 14.2 16 17.8
2010-09-15 07:02:17 51°19.952 2°52.875 13.9 14 11 17.2
2010-09-15 07:02:22 51°19.97 2°52.887 15.9 13.8 21 18.1
2010-09-15 07:02:27 51°19.989 2°52.892 15 14 11 18
2010-09-15 07:02:32 51°20.008 2°52.898 11.1 14 11 17.1
2010-09-15 07:02:37 51°20.026 2°52.906 10.9 13.6 16 17.6
2010-09-15 07:02:42 51°20.045 2°52.914 14.6 13.9 15 16.6
2010-09-15 07:02:47 51°20.064 2°52.92 11.9 13.8 12 17
2010-09-15 07:02:52 51°20.081 2°52.928 13 13.6 15 17.6
2010-09-15 07:02:56 51°20.097 2°52.935 16.1 13.7 15 17.5
2010-09-15 07:03:02 51°20.119 2°52.94 10.9 13.6 8 18.3
2010-09-15 07:03:07 51°20.137 2°52.948 9.7 13.8 15 18.5
2010-09-15 07:03:12 51°20.156 2°52.955 11.1 13.7 14 17.9
2010-09-15 07:03:16 51°20.171 2°52.961 12.9 13.8 16 18
2010-09-15 07:03:22 51°20.193 2°52.969 13.9 13.8 12 17.5
2010-09-15 07:03:27 51°20.211 2°52.979 15.2 13.8 16 17.6
2010-09-15 07:03:32 51°20.23 2°52.986 13.2 13.8 13 17.6
2010-09-15 07:03:37 51°20.248 2°52.995 14.4 13.6 18 17.9
2010-09-15 07:03:42 51°20.266 2°53.005 16.9 13.7 21 18.4
2010-09-15 07:03:47 51°20.285 2°53.012 16.9 13.9 12 18
2010-09-15 07:03:52 51°20.304 2°53.019 11.7 13.8 11 17.5
2010-09-15 07:03:57 51°20.322 2°53.029 14.7 13.8 18 18.2
2010-09-15 07:04:02 51°20.341 2°53.036 14.4 13.7 16 18.2
2010-09-15 07:04:07 51°20.359 2°53.044 15.6 13.9 15 18.4
2010-09-15 07:04:12 51°20.378 2°53.054 14.1 13.7 17 18.6
2010-09-15 07:04:17 51°20.396 2°53.06 13.9 13.7 14 17.9
2010-09-15 07:04:23 51°20.418 2°53.07 16.1 13.8 15 17.3
2010-09-15 07:04:27 51°20.433 2°53.077 14.6 13.7 14 17.1
2010-09-15 07:04:32 51°20.451 2°53.086 15.1 13.9 18 18.1
2010-09-15 07:04:37 51°20.47 2°53.093 13.9 13.8 15 17.7
2010-09-15 07:04:42 51°20.488 2°53.103 16 13.7 17 17.9
2010-09-15 07:04:47 51°20.506 2°53.111 15.3 13.8 17 17.9
2010-09-15 07:04:52 51°20.525 2°53.12 15.9 13.9 18 18.3
2010-09-15 07:04:57 51°20.543 2°53.127 14.7 13.8 14 18
2010-09-15 07:05:02 51°20.561 2°53.136 15.4 13.7 17 17.2
2010-09-15 07:05:08 51°20.583 2°53.146 17.2 13.9 15 17.8
2010-09-15 07:05:12 51°20.598 2°53.154 14.7 13.8 16 18.5
2010-09-15 07:05:16 51°20.613 2°53.16 14.8 13.8 14 17.7
2010-09-15 07:05:22 51°20.634 2°53.172 16.8 13.5 20 18
2010-09-15 07:05:28 51°20.657 2°53.178 15.4 13.6 12 18.3
2010-09-15 07:05:32 51°20.671 2°53.187 13.2 13.8 17 18.2
2010-09-15 07:05:36 51°20.687 2°53.192 14.1 13.6 11 17.8
2010-09-15 07:05:42 51°20.708 2°53.202 13.4 13.6 18 18.1
2010-09-15 07:05:47 51°20.727 2°53.209 16.8 13.8 14 17.8
2010-09-15 07:05:52 51°20.745 2°53.215 12.3 13.6 11 17.4
2010-09-15 07:05:57 51°20.763 2°53.222 12.1 13.6 14 17.8
2010-09-15 07:06:02 51°20.782 2°53.229 13.3 13.8 14 17.8
2010-09-15 07:06:07 51°20.8 2°53.238 12.6 13.8 16 18.3
2010-09-15 07:06:12 51°20.819 2°53.245 14 13.8 15 18.2
2010-09-15 07:06:17 51°20.838 2°53.253 15.6 13.8 13 17.4
2010-09-15 07:06:22 51°20.856 2°53.26 12.5 13.7 14 18.3
2010-09-15 07:06:27 51°20.874 2°53.268 13.7 13.6 15 18.3
2010-09-15 07:06:32 51°20.892 2°53.277 14.7 13.5 17 18.3
2010-09-15 07:06:36 51°20.907 2°53.282 15 13.6 14 18.3
2010-09-15 07:06:42 51°20.928 2°53.293 15.2 13.5 17 17.3
2010-09-15 07:06:47 51°20.946 2°53.302 16 13.4 18 17.7
2010-09-15 07:06:52 51°20.964 2°53.311 16.8 13.4 18 18.3
2010-09-15 07:06:56 51°20.978 2°53.317 15.1 13.3 16 17.6
2010-09-15 07:07:02 51°21 2°53.328 16.1 13.6 18 18.5
2010-09-15 07:07:07 51°21.019 2°53.337 16.5 13.8 17 18.1
2010-09-15 07:07:12 51°21.036 2°53.344 17 13.7 15 17.9
2010-09-15 07:07:17 51°21.054 2°53.354 16.4 13.6 17 18
2010-09-15 07:07:22 51°21.073 2°53.362 16 13.7 16 17.4
2010-09-15 07:07:27 51°21.091 2°53.371 16.4 13.9 16 17.5
2010-09-15 07:07:32 51°21.109 2°53.379 15.4 13.8 15 17.8
2010-09-15 07:07:37 51°21.128 2°53.388 16.1 13.7 15 17.4
2010-09-15 07:07:42 51°21.146 2°53.396 15.7 13.7 17 17.5
2010-09-15 07:07:48 51°21.168 2°53.406 15.9 13.6 16 17.9
2010-09-15 07:07:52 51°21.183 2°53.413 15.9 13.7 16 17.8
2010-09-15 07:07:56 51°21.197 2°53.419 15.7 13.7 14 17.8
2010-09-15 07:08:02 51°21.219 2°53.429 15 13.5 17 17.5
2010-09-15 07:08:07 51°21.237 2°53.437 16.4 13.5 16 17.4
2010-09-15 07:08:12 51°21.255 2°53.446 17 13.6 15 17.5
2010-09-15 07:08:17 51°21.273 2°53.454 16.1 13.5 15 17.6
2010-09-15 07:08:22 51°21.291 2°53.462 15.3 13.6 15 17.3
2010-09-15 07:08:27 51°21.31 2°53.47 15.2 13.8 14 17.6
2010-09-15 07:08:32 51°21.328 2°53.478 14.7 13.8 16 17.3
2010-09-15 07:08:37 51°21.347 2°53.486 14.6 13.7 15 17.8
2010-09-15 07:08:42 51°21.365 2°53.494 15.5 13.6 14 18
2010-09-15 07:08:47 51°21.384 2°53.502 14.6 13.9 17 18.3
2010-09-15 07:08:52 51°21.402 2°53.508 13.8 13.8 12 17.4
2010-09-15 07:08:57 51°21.42 2°53.517 14.2 13.5 16 18.1
2010-09-15 07:09:02 51°21.438 2°53.525 14.3 13.6 15 18
2010-09-15 07:09:07 51°21.457 2°53.532 14.1 13.6 15 18.1
2010-09-15 07:09:12 51°21.475 2°53.54 15.3 13.7 15 17.7
2010-09-15 07:09:17 51°21.493 2°53.545 12.7 13.5 11 17.9
2010-09-15 07:09:23 51°21.516 2°53.553 13.3 13.5 12 17.7
2010-09-15 07:09:27 51°21.53 2°53.56 14.3 13.8 17 18.4
2010-09-15 07:09:32 51°21.549 2°53.564 13 13.8 10 17.9
2010-09-15 07:09:37 51°21.567 2°53.572 11.5 13.5 12 18.2
2010-09-15 07:09:43 51°21.589 2°53.58 13.2 13.7 13 17.8
2010-09-15 07:09:47 51°21.605 2°53.585 12.3 13.9 12 18
2010-09-15 07:09:52 51°21.623 2°53.593 12.4 13.7 14 18.5
2010-09-15 07:09:57 51°21.642 2°53.601 14.7 13.7 15 18.1
2010-09-15 07:10:02 51°21.66 2°53.609 14.8 13.9 14 18.9
2010-09-15 07:10:08 51°21.682 2°53.618 13 13.7 16 18.6
2010-09-15 07:10:12 51°21.697 2°53.625 15.8 13.7 17 18.6
2010-09-15 07:10:17 51°21.715 2°53.63 12.8 13.7 11 19
2010-09-15 07:10:22 51°21.733 2°53.639 13.7 13.6 17 18.8
2010-09-15 07:10:27 51°21.752 2°53.646 14.8 13.7 14 18.8
2010-09-15 07:10:32 51°21.77 2°53.655 15.3 14 17 19.2
2010-09-15 07:10:36 51°21.785 2°53.659 14.4 13.9 11 19.2
2010-09-15 07:10:42 51°21.807 2°53.673 17 13.8 22 19.8
2010-09-15 07:10:47 51°21.825 2°53.679 15.3 13.7 13 20.2
2010-09-15 07:10:52 51°21.844 2°53.686 13.5 13.9 15 19.8
2010-09-15 07:10:56 51°21.859 2°53.691 13.5 13.7 13 20.1
2010-09-15 07:11:02 51°21.881 2°53.7 13.4 13.6 16 20.2
2010-09-15 07:11:07 51°21.899 2°53.708 16.3 13.7 13 19.9
2010-09-15 07:11:12 51°21.918 2°53.713 12.4 13.8 9 20.2
2010-09-15 07:11:17 51°21.937 2°53.72 11.4 13.8 13 20.1
2010-09-15 07:11:22 51°21.955 2°53.727 12.4 13.5 14 19.5
2010-09-15 07:11:27 51°21.973 2°53.736 14.3 13.9 16 20.8
2010-09-15 07:11:32 51°21.992 2°53.741 13.1 13.9 10 21.3
2010-09-15 07:11:37 51°22.011 2°53.75 14 13.7 17 20.6
2010-09-15 07:11:42 51°22.029 2°53.758 15.5 13.7 15 20.8
2010-09-15 07:11:47 51°22.048 2°53.766 15.2 14 14 20.7
2010-09-15 07:11:52 51°22.067 2°53.774 14.2 14 16 20.7
2010-09-15 07:11:56 51°22.082 2°53.779 13.9 13.7 15 20.4
2010-09-15 07:12:02 51°22.103 2°53.791 16.2 13.9 17 20.7
2010-09-15 07:12:07 51°22.122 2°53.798 14.7 14 14 20.3
2010-09-15 07:12:12 51°22.14 2°53.808 14.8 13.8 17 20.4
2010-09-15 07:12:17 51°22.159 2°53.816 17 13.8 16 21.6
2010-09-15 07:12:22 51°22.178 2°53.822 13.7 14 12 21.5
2010-09-15 07:12:28 51°22.2 2°53.832 13.2 14.1 15 20.8
2010-09-15 07:12:32 51°22.215 2°53.839 15.2 13.9 16 20.8
2010-09-15 07:12:37 51°22.234 2°53.846 13.9 14 16 21.3
2010-09-15 07:12:42 51°22.252 2°53.854 14.2 14 15 21.8
2010-09-15 07:12:48 51°22.275 2°53.865 14 13.9 17 22
2010-09-15 07:12:52 51°22.29 2°53.871 15.3 13.9 16 21.8
2010-09-15 07:12:56 51°22.304 2°53.879 15.3 13.7 15 22.3
2010-09-15 07:13:02 51°22.326 2°53.888 13.4 13.7 17 22.1
2010-09-15 07:13:07 51°22.345 2°53.899 17.9 13.9 20 22.8
2010-09-15 07:13:12 51°22.363 2°53.903 13.2 13.5 10 22.2
2010-09-15 07:13:16 51°22.377 2°53.91 11.6 13.5 14 22.7
2010-09-15 07:13:22 51°22.399 2°53.919 12.6 13.8 17 23
2010-09-15 07:13:27 51°22.418 2°53.925 15.3 13.5 11 22.8
2010-09-15 07:13:32 51°22.436 2°53.932 10.6 13.5 12 22.9
2010-09-15 07:13:36 51°22.451 2°53.936 10.8 13.8 12 23.3
2010-09-15 07:13:42 51°22.473 2°53.946 12.4 13.9 16 23.4
2010-09-15 07:13:47 51°22.491 2°53.953 13.1 13.6 13 23.5
2010-09-15 07:13:52 51°22.51 2°53.963 14.7 13.9 18 23.8
2010-09-15 07:13:57 51°22.529 2°53.968 13 13.9 12 23.9
2010-09-15 07:14:02 51°22.547 2°53.977 12.7 13.8 16 23.6
2010-09-15 07:14:07 51°22.565 2°53.986 15.2 13.5 16 23.3
2010-09-15 07:14:12 51°22.584 2°53.992 13.2 13.7 13 23.9
2010-09-15 07:14:16 51°22.598 2°53.999 14 13.6 17 24
2010-09-15 07:14:22 51°22.62 2°54.009 14.7 13.7 16 24.4
2010-09-15 07:14:28 51°22.642 2°54.02 15 13.8 17 24.4
2010-09-15 07:14:32 51°22.657 2°54.027 15.7 13.9 17 24.6
2010-09-15 07:14:36 51°22.671 2°54.033 15.7 13.6 16 23.5
2010-09-15 07:14:42 51°22.693 2°54.045 18 13.8 18 24.1
2010-09-15 07:14:47 51°22.711 2°54.05 12.9 13.6 11 24.8
2010-09-15 07:14:52 51°22.729 2°54.058 10.9 13.7 16 23.4
2010-09-15 07:14:56 51°22.744 2°54.064 13.2 13.7 14 24
2010-09-15 07:15:02 51°22.766 2°54.073 12.8 13.6 16 23.6
2010-09-15 07:15:07 51°22.785 2°54.081 14.5 13.9 15 23.9
2010-09-15 07:15:12 51°22.803 2°54.09 14.3 14 16 24.1
2010-09-15 07:15:17 51°22.822 2°54.097 15.2 13.9 14 23.8
2010-09-15 07:15:22 51°22.841 2°54.105 14.6 13.9 14 23.2
2010-09-15 07:15:27 51°22.859 2°54.115 14.4 13.9 19 22.8
2010-09-15 07:15:32 51°22.878 2°54.122 15.6 14.1 14 20.2
2010-09-15 07:15:36 51°22.893 2°54.126 12.7 14 12 22.3
2010-09-15 07:15:42 51°22.916 2°54.137 14.2 14 16 23.4
2010-09-15 07:15:47 51°22.934 2°54.144 13.2 13.9 14 23.9
2010-09-15 07:15:52 51°22.953 2°54.153 14.4 13.9 17 23.7
2010-09-15 07:15:56 51°22.968 2°54.156 11.3 13.8 11 23.3
2010-09-15 07:16:02 51°22.99 2°54.169 14.8 14 19 22
2010-09-15 07:16:07 51°23.009 2°54.175 13.9 13.9 13 23.7
2010-09-15 07:16:12 51°23.027 2°54.184 13.9 13.9 15 23.7
2010-09-15 07:16:17 51°23.046 2°54.192 15.2 13.9 15 23.6
2010-09-15 07:16:22 51°23.064 2°54.203 16.1 14.2 19 23.1
2010-09-15 07:16:27 51°23.084 2°54.207 14.2 13.8 11 22.1
2010-09-15 07:16:32 51°23.101 2°54.221 16.9 14 24 21.7
2010-09-15 07:16:37 51°23.12 2°54.225 16.9 13.8 10 22.4
2010-09-15 07:16:42 51°23.138 2°54.233 13.2 13.7 14 22.2
2010-09-15 07:16:47 51°23.157 2°54.239 13.2 13.5 10 21.2
2010-09-15 07:16:52 51°23.175 2°54.243 9.5 13.6 9 22
2010-09-15 07:16:56 51°23.19 2°54.247 7.7 13.8 10 21.5
2010-09-15 07:17:02 51°23.213 2°54.252 8.5 13.8 5 20.4
2010-09-15 07:17:07 51°23.232 2°54.255 5.3 13.7 7 21.2
2010-09-15 07:17:12 51°23.252 2°54.259 6.6 14 8 22
2010-09-15 07:17:17 51°23.27 2°54.262 5.9 13.8 4 21.5
2010-09-15 07:17:22 51°23.289 2°54.267 5.4 13.8 10 21.5
2010-09-15 07:17:27 51°23.308 2°54.267 5.9 13.7 1 21.2
2010-09-15 07:17:32 51°23.327 2°54.27 2.4 13.8 3 20.6
2010-09-15 07:17:37 51°23.346 2°54.272 2.6 13.7 4 20.1
2010-09-15 07:17:42 51°23.365 2°54.273 2.3 13.7 3 19.6
2010-09-15 07:17:47 51°23.385 2°54.277 4.4 13.8 6 21.7
2010-09-15 07:17:52 51°23.403 2°54.276 1.5 13.7 359 21.4
2010-09-15 07:17:57 51°23.422 2°54.281 3.4 13.9 7 21.3
2010-09-15 07:18:03 51°23.445 2°54.283 3.1 13.9 4 20.6
2010-09-15 07:18:07 51°23.461 2°54.286 4 13.9 7 21.2
2010-09-15 07:18:12 51°23.48 2°54.287 4.3 13.8 3 19.3
2010-09-15 07:18:17 51°23.499 2°54.291 3.7 13.8 7 21.3
2010-09-15 07:18:22 51°23.517 2°54.294 4.5 13.7 5 21
2010-09-15 07:18:27 51°23.536 2°54.299 5.8 13.7 6 21
2010-09-15 07:18:32 51°23.555 2°54.3 3.4 13.6 4 19.2
2010-09-15 07:18:37 51°23.573 2°54.304 5.1 13.4 6 21.5
2010-09-15 07:18:42 51°23.592 2°54.307 4.3 13.4 7 22
2010-09-15 07:18:48 51°23.614 2°54.31 4.8 13.5 5 21.8
2010-09-15 07:18:52 51°23.629 2°54.315 4.7 13.6 9 21.9
2010-09-15 07:18:56 51°23.644 2°54.316 5.1 13.5 3 21.3
2010-09-15 07:19:02 51°23.667 2°54.319 3.8 13.5 4 20.5
2010-09-15 07:19:07 51°23.685 2°54.323 4.1 13.3 7 21.3
2010-09-15 07:19:12 51°23.703 2°54.324 4.5 13.4 4 21
2010-09-15 07:19:17 51°23.722 2°54.329 4.6 13.6 10 21.9
2010-09-15 07:19:22 51°23.741 2°54.332 5.3 13.6 4 22.1
2010-09-15 07:19:27 51°23.76 2°54.334 3.8 13.6 6 21.2
2010-09-15 07:19:32 51°23.779 2°54.337 5 13.8 7 21.9
2010-09-15 07:19:37 51°23.798 2°54.339 3.1 13.5 3 22.3
2010-09-15 07:19:42 51°23.816 2°54.341 3.2 13.5 4 21.2
2010-09-15 07:19:47 51°23.835 2°54.344 4.4 13.7 6 22.3
2010-09-15 07:19:52 51°23.854 2°54.345 3.7 13.6 1 21.9
2010-09-15 07:19:56 51°23.869 2°54.348 3.9 13.6 8 22.4
2010-09-15 07:20:02 51°23.892 2°54.35 4.5 13.6 1 22.5
2010-09-15 07:20:07 51°23.911 2°54.353 3.7 13.6 7 21.5
2010-09-15 07:20:12 51°23.929 2°54.356 4.1 13.7 7 21.6
2010-09-15 07:20:16 51°23.944 2°54.356 4.4 13.4 2 20.7
2010-09-15 07:20:22 51°23.967 2°54.362 5.5 13.6 8 22.2
2010-09-15 07:20:27 51°23.985 2°54.363 3.8 13.5 3 23.5
2010-09-15 07:20:32 51°24.004 2°54.366 2.3 13.3 6 23.5
2010-09-15 07:20:37 51°24.023 2°54.367 4.4 13.7 4 22.4
2010-09-15 07:20:42 51°24.041 2°54.369 2.5 13.5 4 22.9
2010-09-15 07:20:47 51°24.06 2°54.372 2.5 13.7 6 22.9
2010-09-15 07:20:52 51°24.079 2°54.373 3.6 13.7 2 22.1
2010-09-15 07:20:57 51°24.097 2°54.375 0.8 13.2 3 23.1
2010-09-15 07:21:02 51°24.116 2°54.377 3 13.4 5 23.3
2010-09-15 07:21:08 51°24.138 2°54.378 2.7 13.4 1 23.5
2010-09-15 07:21:12 51°24.153 2°54.381 1.6 13.4 5 22.9
2010-09-15 07:21:16 51°24.168 2°54.384 4.2 13.8 4 23
2010-09-15 07:21:22 51°24.191 2°54.387 3.9 13.6 6 22.7
2010-09-15 07:21:28 51°24.213 2°54.39 5.3 13.6 6 22.5
2010-09-15 07:21:32 51°24.228 2°54.393 5.1 13.7 5 23.3
2010-09-15 07:21:36 51°24.243 2°54.396 5.4 13.6 7 23.3
2010-09-15 07:21:42 51°24.266 2°54.399 5.8 13.6 6 23.2
2010-09-15 07:21:47 51°24.285 2°54.402 5.2 13.7 4 23
2010-09-15 07:21:52 51°24.303 2°54.406 6.6 13.6 8 24.2
2010-09-15 07:21:57 51°24.323 2°54.41 6.8 13.6 8 24.2
2010-09-15 07:22:02 51°24.342 2°54.412 3.2 13.6 4 23.3
2010-09-15 07:22:07 51°24.36 2°54.417 4.4 13.7 8 23.3
2010-09-15 07:22:12 51°24.379 2°54.417 5.4 13.7 2 22.6
2010-09-15 07:22:17 51°24.398 2°54.419 3.2 13.5 5 22.1
2010-09-15 07:22:22 51°24.417 2°54.423 5.2 13.5 4 23
2010-09-15 07:22:27 51°24.435 2°54.425 3.4 13.5 5 23.4
2010-09-15 07:22:32 51°24.454 2°54.428 5.8 13.5 7 22.1
2010-09-15 07:22:36 51°24.469 2°54.428 3.6 13.5 2 22.2
2010-09-15 07:22:42 51°24.492 2°54.433 3 13.6 7 22.3
2010-09-15 07:22:47 51°24.511 2°54.434 4.1 13.6 2 21.5
2010-09-15 07:22:52 51°24.53 2°54.438 3.5 13.7 6 21.2
2010-09-15 07:22:56 51°24.545 2°54.439 3.5 13.7 2 21.2
2010-09-15 07:23:02 51°24.568 2°54.443 4 13.8 8 21.1
2010-09-15 07:23:07 51°24.587 2°54.444 5 13.9 3 20.6
2010-09-15 07:23:12 51°24.606 2°54.445 2.8 13.8 2 19.8
2010-09-15 07:23:17 51°24.624 2°54.449 4 13.5 5 19.6
2010-09-15 07:23:22 51°24.644 2°54.452 4.6 13.6 4 19.3
2010-09-15 07:23:28 51°24.666 2°54.455 3.3 13.8 6 19.3
2010-09-15 07:23:32 51°24.681 2°54.456 5.2 13.7 7 18.9
2010-09-15 07:23:37 51°24.7 2°54.459 4.4 13.5 5 18.6
2010-09-15 07:23:42 51°24.719 2°54.462 5.2 14 5 18.6
2010-09-15 07:23:47 51°24.739 2°54.464 4.8 13.9 4 19
2010-09-15 07:23:52 51°24.757 2°54.469 5.1 13.5 7 18.3
2010-09-15 07:23:56 51°24.774 2°54.474 6.6 14.1 6 18.1
2010-09-15 07:24:02 51°24.796 2°54.474 1 13.4 2 19.1
2010-09-15 07:24:07 51°24.815 2°54.479 3.4 13.9 9 18.9
2010-09-15 07:24:12 51°24.834 2°54.478 3.5 13.8 -999 18.3
2010-09-15 07:24:16 51°24.849 2°54.481 2.2 13.4 6 18.2
2010-09-15 07:24:22 51°24.872 2°54.484 4.6 13.6 3 19.3
2010-09-15 07:24:27 51°24.89 2°54.484 1 13.2 1 17.8
2010-09-15 07:24:32 51°24.908 2°54.489 4.1 13.4 8 19
2010-09-15 07:24:37 51°24.927 2°54.49 3 13.4 1 19.3
2010-09-15 07:24:42 51°24.946 2°54.493 2.4 13.5 5 20.3
2010-09-15 07:24:47 51°24.964 2°54.496 3 13.6 8 21.1
2010-09-15 07:24:52 51°24.982 2°54.497 4.4 13.4 5 20.5
2010-09-15 07:24:57 51°25.001 2°54.499 2.3 13.3 5 20.7
2010-09-15 07:25:02 51°25.019 2°54.503 4.4 13.4 7 20.4
2010-09-15 07:25:07 51°25.038 2°54.505 3.8 13.5 3 20.9
2010-09-15 07:25:12 51°25.056 2°54.509 3.5 13.4 7 20.8
2010-09-15 07:25:16 51°25.071 2°54.51 5 13.3 4 20.6
2010-09-15 07:25:22 51°25.093 2°54.511 3 13.3 1 21.3
2010-09-15 07:25:27 51°25.111 2°54.515 4 13.4 8 21.3
2010-09-15 07:25:32 51°25.13 2°54.518 4.4 13.3 5 21
2010-09-15 07:25:36 51°25.144 2°54.52 5 13.5 5 21.4
2010-09-15 07:25:42 51°25.167 2°54.523 4.8 13.4 6 20.9
2010-09-15 07:25:47 51°25.185 2°54.527 6.3 13.5 6 20.9
2010-09-15 07:25:52 51°25.203 2°54.53 5.9 13.5 6 20.4
2010-09-15 07:25:57 51°25.222 2°54.533 3 13.2 5 20.2
2010-09-15 07:26:02 51°25.24 2°54.538 8.1 13.6 9 21
2010-09-15 07:26:08 51°25.262 2°54.537 2.9 13.3 -999 20.6
2010-09-15 07:26:12 51°25.277 2°54.539 1.2 13.3 3 21.2
2010-09-15 07:26:17 51°25.295 2°54.54 2.5 13.3 4 21.2
2010-09-15 07:26:22 51°25.314 2°54.542 3.9 13.5 2 21.3
2010-09-15 07:26:27 51°25.333 2°54.545 2.7 13.5 5 20.5
2010-09-15 07:26:32 51°25.352 2°54.547 3.9 13.5 5 20.5
2010-09-15 07:26:37 51°25.37 2°54.552 5.4 13.5 7 20.6
2010-09-15 07:26:42 51°25.389 2°54.552 3.5 13.6 2 19.8
2010-09-15 07:26:47 51°25.408 2°54.557 5.4 13.7 9 19.4
2010-09-15 07:26:52 51°25.426 2°54.555 2.9 13.4 -999 19.2
2010-09-15 07:26:57 51°25.445 2°54.561 4.7 13.9 9 19.7
2010-09-15 07:27:02 51°25.464 2°54.561 4 13.4 1 20
2010-09-15 07:27:07 51°25.482 2°54.566 5.4 13.5 8 20.2
2010-09-15 07:27:12 51°25.501 2°54.568 4.5 13.5 4 21.6
2010-09-15 07:27:17 51°25.52 2°54.571 4 13.4 8 22
2010-09-15 07:27:22 51°25.538 2°54.573 5.4 13.4 2 21.8
2010-09-15 07:27:27 51°25.556 2°54.573 0.9 13.2 2 21.3
2010-09-15 07:27:32 51°25.575 2°54.575 1.1 13.4 3 20.9
2010-09-15 07:27:36 51°25.59 2°54.577 3.4 13.4 3 21
2010-09-15 07:27:42 51°25.612 2°54.58 3.2 13.6 5 21.6
2010-09-15 07:27:48 51°25.634 2°54.581 3.2 13.6 4 21
2010-09-15 07:27:52 51°25.649 2°54.585 5.2 13.6 8 22.1
2010-09-15 07:27:56 51°25.663 2°54.585 3.4 13 3 22.9
2010-09-15 07:28:02 51°25.685 2°54.591 5.6 13.1 7 22.5
2010-09-15 07:28:07 51°25.703 2°54.593 4.1 13 5 22.9
2010-09-15 07:28:12 51°25.721 2°54.596 4.9 12.9 6 23
2010-09-15 07:28:17 51°25.739 2°54.6 6.6 13.2 8 23.8
2010-09-15 07:28:22 51°25.758 2°54.601 3 13.5 4 23.5
2010-09-15 07:28:27 51°25.777 2°54.606 5.7 13.4 8 23
2010-09-15 07:28:32 51°25.795 2°54.608 5.2 13.3 5 23.9
2010-09-15 07:28:36 51°25.81 2°54.611 5.9 13.6 9 23.8
2010-09-15 07:28:42 51°25.833 2°54.615 5.5 13.5 5 24.3
2010-09-15 07:28:47 51°25.851 2°54.62 5.9 13.6 9 24.8
2010-09-15 07:28:52 51°25.87 2°54.621 5.2 13.7 5 24.5
2010-09-15 07:28:56 51°25.885 2°54.622 3.8 13.5 2 23.9
2010-09-15 07:29:02 51°25.907 2°54.627 5.4 13.7 8 24.8
2010-09-15 07:29:07 51°25.926 2°54.627 4.4 13.6 2 24.9
2010-09-15 07:29:12 51°25.945 2°54.629 2.4 13.6 2 25.3
2010-09-15 07:29:17 51°25.964 2°54.632 3.8 13.8 5 24.1
2010-09-15 07:29:22 51°25.983 2°54.635 2.9 13.5 6 25.1
2010-09-15 07:29:27 51°26.002 2°54.637 4.9 13.7 5 24.8
2010-09-15 07:29:32 51°26.021 2°54.639 4.5 13.8 2 24.6
2010-09-15 07:29:36 51°26.036 2°54.642 5 13.6 7 24.4
2010-09-15 07:29:42 51°26.058 2°54.644 5.1 13.6 2 25.9
2010-09-15 07:29:48 51°26.08 2°54.648 5.6 13.7 8 25.6
2010-09-15 07:29:52 51°26.095 2°54.65 5.6 13.6 4 25.5
2010-09-15 07:29:56 51°26.111 2°54.653 5.9 13.9 5 25.3
2010-09-15 07:30:02 51°26.134 2°54.657 5.3 13.7 6 25.4
2010-09-15 07:30:07 51°26.153 2°54.66 5.3 13.6 5 25.3
2010-09-15 07:30:12 51°26.172 2°54.665 7.1 13.8 10 25.7
2010-09-15 07:30:16 51°26.187 2°54.665 5.2 13.9 -999 25.2
2010-09-15 07:30:22 51°26.21 2°54.669 4.6 13.9 7 25.5
2010-09-15 07:30:27 51°26.229 2°54.673 5.7 13.8 6 26.3
2010-09-15 07:30:32 51°26.248 2°54.675 4.5 13.7 4 26.1
2010-09-15 07:30:37 51°26.267 2°54.677 3.7 13.8 3 26.7
2010-09-15 07:30:42 51°26.286 2°54.68 5.6 13.9 4 26.2
2010-09-15 07:30:47 51°26.304 2°54.682 3.9 13.4 5 25.6
2010-09-15 07:30:52 51°26.323 2°54.686 5.6 13.5 9 27.1
2010-09-15 07:30:56 51°26.338 2°54.687 4.4 13.7 2 26.7
2010-09-15 07:31:02 51°26.361 2°54.692 5.2 13.6 7 27.1
2010-09-15 07:31:07 51°26.38 2°54.695 4.7 13.7 6 27.3
2010-09-15 07:31:12 51°26.398 2°54.698 5.9 13.3 6 26.2
2010-09-15 07:31:16 51°26.413 2°54.699 3.4 13.2 5 27.9
2010-09-15 07:31:22 51°26.435 2°54.704 4.5 13.4 5 26.9
2010-09-15 07:31:27 51°26.454 2°54.706 4.3 13.3 5 26.8
2010-09-15 07:31:32 51°26.472 2°54.71 4 13.3 7 27.6
2010-09-15 07:31:36 51°26.487 2°54.714 4.7 13.6 8 26.2
2010-09-15 07:31:42 51°26.509 2°54.717 3.3 13.1 6 26.5
2010-09-15 07:31:47 51°26.527 2°54.721 5.2 13.4 5 27
2010-09-15 07:31:52 51°26.546 2°54.721 2.4 13.4 1 27.2
2010-09-15 07:31:57 51°26.564 2°54.726 4.3 13.5 8 27.2
2010-09-15 07:32:02 51°26.583 2°54.727 4.1 13.6 3 26.5
2010-09-15 07:32:07 51°26.602 2°54.732 3.5 13.8 8 26.7
2010-09-15 07:32:12 51°26.621 2°54.734 4.5 13.9 5 27.3
2010-09-15 07:32:16 51°26.637 2°54.735 4 13.9 5 26.8
2010-09-15 07:32:22 51°26.66 2°54.74 4.9 13.9 5 26.8
2010-09-15 07:32:28 51°26.683 2°54.746 4.3 13.9 9 27.5
2010-09-15 07:32:32 51°26.698 2°54.747 5.7 13.8 6 28.1
2010-09-15 07:32:36 51°26.713 2°54.748 1.9 13.7 6 27.1
2010-09-15 07:32:42 51°26.735 2°54.753 4.5 13.5 6 27.3
2010-09-15 07:32:47 51°26.755 2°54.755 3.8 13.7 5 27.5
2010-09-15 07:32:52 51°26.774 2°54.759 3.9 14 6 27.1
2010-09-15 07:32:56 51°26.789 2°54.761 3.8 13.9 4 26.9
2010-09-15 07:33:02 51°26.812 2°54.765 4.4 13.9 8 27
2010-09-15 07:33:07 51°26.831 2°54.767 5.2 13.9 3 27.1
2010-09-15 07:33:12 51°26.851 2°54.767 1.8 14 1 26.9
2010-09-15 07:33:17 51°26.87 2°54.772 2.3 13.9 7 27.5
2010-09-15 07:33:22 51°26.889 2°54.773 3.3 13.9 3 28
2010-09-15 07:33:27 51°26.908 2°54.774 2.5 14 1 27.6
2010-09-15 07:33:32 51°26.927 2°54.778 2.9 14.2 8 28.4
2010-09-15 07:33:36 51°26.943 2°54.778 3.5 13.9 2 28.7
2010-09-15 07:33:42 51°26.966 2°54.78 1.1 13.9 3 28.4
2010-09-15 07:33:47 51°26.985 2°54.784 3.6 13.9 7 28.7
2010-09-15 07:33:52 51°27.004 2°54.786 4 13.9 4 28.9
2010-09-15 07:33:56 51°27.02 2°54.787 2.9 14.1 6 28.9
2010-09-15 07:34:02 51°27.043 2°54.792 5.5 14 5 28.9
2010-09-15 07:34:07 51°27.063 2°54.794 2.6 13.9 3 29
2010-09-15 07:34:12 51°27.082 2°54.798 3.6 14.1 7 29.2
2010-09-15 07:34:16 51°27.097 2°54.798 3.7 13.9 3 28.9
2010-09-15 07:34:22 51°27.12 2°54.802 3.9 14 6 28.5
2010-09-15 07:34:27 51°27.14 2°54.805 4.8 14.2 4 29
2010-09-15 07:34:32 51°27.159 2°54.81 3.5 14 7 29.8
2010-09-15 07:34:37 51°27.178 2°54.813 6.1 13.9 7 30.2
2010-09-15 07:34:42 51°27.198 2°54.817 5.2 14.1 7 30
2010-09-15 07:34:48 51°27.221 2°54.82 5.2 13.8 5 29.7
2010-09-15 07:34:52 51°27.236 2°54.825 5.9 13.7 8 30.2